Appomattox, Virginia
Current Conditions -  °F | °C
As of 2:55 AM on Sunday 26 Oct 2014 (Local Time) from K0V4 Reporting Station
Clear Clear  
Wind Chill: 61°   Ceiling: Unl
Heat Index: 61°   Visibility: 10mi
Dew Point: 53°   Wind: 8mph
Humidity: 76%   Direction: 240°WSW
Pressure: 29.8"   Gusts: NA
Location:  37.36°N, 78.83°W
Report Text: K0V4 260655Z AUTO 24007KT 10SM CLR 16/12 A2980 RMK AO1 T01590117
Loading
Personal Weather Stations






























Interactive Weather Map New forecast layout! Learn more

10-Day Weather Forecast

Advertisements
Track Severe Weather on mobile